TAF KPVW
KPVW 090524Z 0906/1006 25011KT P6SM SCT250 WS010/26040KT FM091400 27018G28KT P6SM SCT250 FM091700 27022G32KT P6SM SCT250 FM100200 22011KT P6SM SCT250 WS007/24045KT=
METAR KPVW
WC KPVW
WS KPVW
WV KPVW